createdAt,value
2019-03-23T00:00:40.741Z,1023.11
2019-03-23T00:01:40.607Z,1023.13
2019-03-23T00:02:40.611Z,1023.13
2019-03-23T00:03:40.686Z,1023.13
2019-03-23T00:04:40.488Z,1023.14
2019-03-23T00:05:40.487Z,1023.16
2019-03-23T00:06:40.365Z,1023.21
2019-03-23T00:07:40.367Z,1023.19
2019-03-23T00:08:40.364Z,1023.24
2019-03-23T00:09:40.246Z,1023.25
2019-03-23T00:10:40.244Z,1023.29
2019-03-23T00:11:40.122Z,1023.28
2019-03-23T00:12:40.126Z,1023.28
2019-03-23T00:13:40.122Z,1023.30
2019-03-23T00:14:40.006Z,1023.27
2019-03-23T00:15:40.003Z,1023.28
2019-03-23T00:16:39.887Z,1023.27
2019-03-23T00:17:39.881Z,1023.26
2019-03-23T00:18:39.884Z,1023.29
2019-03-23T00:19:39.759Z,1023.25
2019-03-23T00:20:39.762Z,1023.27
2019-03-23T00:21:39.723Z,1023.29
2019-03-23T00:22:39.644Z,1023.28
2019-03-23T00:23:39.640Z,1023.34
2019-03-23T00:24:39.521Z,1023.28
2019-03-23T00:25:39.523Z,1023.31
2019-03-23T00:26:39.529Z,1023.34
2019-03-23T00:27:39.402Z,1023.32
2019-03-23T00:28:39.410Z,1023.35
2019-03-23T00:29:39.290Z,1023.38
2019-03-23T00:30:39.283Z,1023.33
2019-03-23T00:31:39.289Z,1023.36
2019-03-23T00:32:39.167Z,1023.33
2019-03-23T00:33:39.167Z,1023.36
2019-03-23T00:34:39.040Z,1023.34
2019-03-23T00:35:39.045Z,1023.43
2019-03-23T00:36:41.704Z,1023.44
2019-03-23T00:37:38.918Z,1023.43
2019-03-23T00:38:38.917Z,1023.40
2019-03-23T00:39:38.799Z,1023.43
2019-03-23T00:40:38.799Z,1023.45
2019-03-23T00:41:38.808Z,1023.47
2019-03-23T00:42:38.678Z,1023.49
2019-03-23T00:43:38.679Z,1023.46
2019-03-23T00:44:38.639Z,1023.46
2019-03-23T00:45:38.563Z,1023.51
2019-03-23T00:46:38.558Z,1023.55
2019-03-23T00:47:38.437Z,1023.60
2019-03-23T00:48:38.447Z,1023.60
2019-03-23T00:49:38.444Z,1023.63
2019-03-23T00:50:38.314Z,1023.67
2019-03-23T00:51:38.319Z,1023.67
2019-03-23T00:52:38.196Z,1023.62
2019-03-23T00:53:38.195Z,1023.66
2019-03-23T00:54:38.194Z,1023.74
2019-03-23T00:55:38.072Z,1023.71
2019-03-23T00:56:38.073Z,1023.71
2019-03-23T00:57:37.955Z,1023.79
2019-03-23T00:58:37.954Z,1023.79
2019-03-23T00:59:37.959Z,1023.80
2019-03-23T01:00:37.834Z,1023.81
2019-03-23T01:01:37.832Z,1023.80
2019-03-23T01:02:37.720Z,1023.80
2019-03-23T01:03:37.711Z,1023.82
2019-03-23T01:04:37.717Z,1023.82
2019-03-23T01:05:37.593Z,1023.82
2019-03-23T01:06:37.591Z,1023.88
2019-03-23T01:07:37.560Z,1023.85
2019-03-23T01:08:37.482Z,1023.86
2019-03-23T01:09:37.470Z,1023.89
2019-03-23T01:10:37.357Z,1023.94
2019-03-23T01:11:37.354Z,1023.93
2019-03-23T01:12:37.313Z,1023.94
2019-03-23T01:13:37.232Z,1023.98
2019-03-23T01:14:37.232Z,1024.04
2019-03-23T01:15:37.120Z,1023.96
2019-03-23T01:16:37.119Z,1023.99
2019-03-23T01:17:37.109Z,1024.01
2019-03-23T01:18:36.989Z,1024.00
2019-03-23T01:19:36.990Z,1023.97
2019-03-23T01:20:36.867Z,1023.96
2019-03-23T01:21:36.869Z,1023.97
2019-03-23T01:22:36.871Z,1023.96
2019-03-23T01:23:36.747Z,1023.95
2019-03-23T01:24:36.748Z,1023.96
2019-03-23T01:25:36.632Z,1023.94
2019-03-23T01:26:36.626Z,1023.97
2019-03-23T01:27:36.633Z,1023.96
2019-03-23T01:28:36.510Z,1023.97
2019-03-23T01:29:36.509Z,1023.98
2019-03-23T01:30:36.388Z,1024.00
2019-03-23T01:31:36.390Z,1024.01
2019-03-23T01:32:36.386Z,1023.98
2019-03-23T01:33:36.274Z,1024.02
2019-03-23T01:34:36.264Z,1024.01
2019-03-23T01:35:36.146Z,1024.02
2019-03-23T01:36:36.148Z,1024.02
2019-03-23T01:37:36.146Z,1024.03
2019-03-23T01:38:36.030Z,1024.04
2019-03-23T01:39:36.026Z,1024.02
2019-03-23T01:40:36.423Z,1024.04
2019-03-23T01:41:35.905Z,1024.04
2019-03-23T01:42:35.911Z,1024.03
2019-03-23T01:43:35.783Z,1024.03
2019-03-23T01:44:35.785Z,1024.00
2019-03-23T01:45:35.784Z,1024.06
2019-03-23T01:46:35.865Z,1024.04
2019-03-23T01:47:35.668Z,1024.06
2019-03-23T01:48:35.542Z,1024.05
2019-03-23T01:49:35.545Z,1024.04
2019-03-23T01:50:35.625Z,1024.07
2019-03-23T01:51:35.421Z,1024.07
2019-03-23T01:52:35.423Z,1024.01
2019-03-23T01:53:35.303Z,1024.07
2019-03-23T01:54:35.306Z,1024.08
2019-03-23T01:55:35.300Z,1024.09
2019-03-23T01:56:35.201Z,1024.12
2019-03-23T01:57:35.183Z,1024.12
2019-03-23T01:58:35.143Z,1024.10
2019-03-23T01:59:35.062Z,1024.13
2019-03-23T02:00:35.070Z,1024.14
2019-03-23T02:01:34.939Z,1024.16
2019-03-23T02:02:34.951Z,1024.13
2019-03-23T02:03:34.902Z,1024.10
2019-03-23T02:04:34.820Z,1024.17
2019-03-23T02:05:34.821Z,1024.14
2019-03-23T02:06:34.698Z,1024.19
2019-03-23T02:07:34.701Z,1024.17
2019-03-23T02:08:34.700Z,1024.23
2019-03-23T02:09:34.579Z,1024.23
2019-03-23T02:10:34.581Z,1024.25
2019-03-23T02:11:34.456Z,1024.26
2019-03-23T02:12:34.466Z,1024.23
2019-03-23T02:13:34.461Z,1024.30
2019-03-23T02:14:34.341Z,1024.31
2019-03-23T02:15:34.340Z,1024.28
2019-03-23T02:16:34.222Z,1024.30
2019-03-23T02:17:34.218Z,1024.31
2019-03-23T02:18:34.296Z,1024.32
2019-03-23T02:19:34.097Z,1024.33
2019-03-23T02:20:34.100Z,1024.33
2019-03-23T02:21:33.979Z,1024.35
2019-03-23T02:22:33.977Z,1024.39
2019-03-23T02:23:33.977Z,1024.35
2019-03-23T02:24:33.854Z,1024.40
2019-03-23T02:25:33.861Z,1024.39
2019-03-23T02:26:33.818Z,1024.37
2019-03-23T02:27:33.736Z,1024.40
2019-03-23T02:28:33.736Z,1024.42
2019-03-23T02:29:33.613Z,1024.37
2019-03-23T02:30:33.616Z,1024.39
2019-03-23T02:31:33.622Z,1024.43
2019-03-23T02:32:33.495Z,1024.43
2019-03-23T02:33:33.495Z,1024.45
2019-03-23T02:34:33.375Z,1024.48
2019-03-23T02:35:33.382Z,1024.47
2019-03-23T02:36:33.375Z,1024.46
2019-03-23T02:37:33.253Z,1024.50
2019-03-23T02:38:33.256Z,1024.53
2019-03-23T02:39:33.211Z,1024.53
2019-03-23T02:40:33.153Z,1024.54
2019-03-23T02:41:33.140Z,1024.51
2019-03-23T02:42:33.017Z,1024.58
2019-03-23T02:43:33.015Z,1024.58
2019-03-23T02:44:32.909Z,1024.60
2019-03-23T02:45:32.894Z,1024.59
2019-03-23T02:46:32.897Z,1024.60
2019-03-23T02:47:32.770Z,1024.64
2019-03-23T02:48:32.775Z,1024.63
2019-03-23T02:49:32.650Z,1024.61
2019-03-23T02:50:32.663Z,1024.60
2019-03-23T02:51:32.651Z,1024.65
2019-03-23T02:52:32.529Z,1024.62
2019-03-23T02:53:32.528Z,1024.64
2019-03-23T02:54:32.495Z,1024.61
2019-03-23T02:55:32.410Z,1024.62
2019-03-23T02:56:32.419Z,1024.62
2019-03-23T02:57:32.293Z,1024.63
2019-03-23T02:58:32.293Z,1024.67
2019-03-23T02:59:32.292Z,1024.63
2019-03-23T03:00:32.172Z,1024.64
2019-03-23T03:01:32.170Z,1024.64
2019-03-23T03:02:32.049Z,1024.67
2019-03-23T03:03:32.052Z,1024.67
2019-03-23T03:04:32.051Z,1024.64
2019-03-23T03:05:31.929Z,1024.71
2019-03-23T03:06:31.928Z,1024.75
2019-03-23T03:07:41.765Z,1024.78
2019-03-23T03:08:31.807Z,1024.78
2019-03-23T03:09:31.811Z,1024.76
2019-03-23T03:10:31.692Z,1024.78
2019-03-23T03:11:31.685Z,1024.85
2019-03-23T03:12:31.582Z,1024.82
2019-03-23T03:13:31.568Z,1024.90
2019-03-23T03:14:31.569Z,1024.88
2019-03-23T03:15:31.472Z,1024.85
2019-03-23T03:16:31.447Z,1024.84
2019-03-23T03:17:31.325Z,1024.84
2019-03-23T03:18:31.327Z,1024.79
2019-03-23T03:19:31.323Z,1024.81
2019-03-23T03:20:31.207Z,1024.82
2019-03-23T03:21:31.206Z,1024.84
2019-03-23T03:22:31.202Z,1024.84
2019-03-23T03:23:31.089Z,1024.86
2019-03-23T03:24:31.081Z,1024.89
2019-03-23T03:25:30.962Z,1024.87
2019-03-23T03:26:30.971Z,1024.83
2019-03-23T03:27:30.973Z,1024.88
2019-03-23T03:28:30.841Z,1024.86
2019-03-23T03:29:30.848Z,1024.81
2019-03-23T03:30:30.728Z,1024.81
2019-03-23T03:31:30.726Z,1024.81
2019-03-23T03:32:30.724Z,1024.82
2019-03-23T03:33:30.722Z,1024.89
2019-03-23T03:34:30.682Z,1024.89
2019-03-23T03:35:30.484Z,1024.90
2019-03-23T03:36:30.484Z,1024.95
2019-03-23T03:37:30.491Z,1024.95
2019-03-23T03:38:30.365Z,1024.93
2019-03-23T03:39:30.366Z,1024.91
2019-03-23T03:40:30.248Z,1024.94
2019-03-23T03:41:30.240Z,1024.93
2019-03-23T03:42:30.243Z,1024.94
2019-03-23T03:43:30.122Z,1024.98
2019-03-23T03:44:30.118Z,1024.97
2019-03-23T03:45:30.080Z,1024.91
2019-03-23T03:46:30.008Z,1024.93
2019-03-23T03:47:30.002Z,1024.93
2019-03-23T03:48:29.878Z,1024.89
2019-03-23T03:49:29.880Z,1024.91
2019-03-23T03:50:29.892Z,1024.92
2019-03-23T03:51:29.760Z,1024.97
2019-03-23T03:52:29.758Z,1024.98
2019-03-23T03:53:29.637Z,1024.97
2019-03-23T03:54:29.638Z,1024.99
2019-03-23T03:55:29.641Z,1025.00
2019-03-23T03:56:29.530Z,1025.00
2019-03-23T03:57:29.520Z,1024.98
2019-03-23T03:58:29.395Z,1025.01
2019-03-23T03:59:29.400Z,1025.00
2019-03-23T04:00:29.395Z,1025.01
2019-03-23T04:01:29.277Z,1024.98
2019-03-23T04:02:29.278Z,1024.99
2019-03-23T04:03:29.166Z,1025.03
2019-03-23T04:04:29.168Z,1024.98
2019-03-23T04:05:29.154Z,1024.96
2019-03-23T04:06:29.036Z,1024.90
2019-03-23T04:07:29.043Z,1024.88
2019-03-23T04:08:28.921Z,1024.89
2019-03-23T04:09:28.915Z,1024.88
2019-03-23T04:10:28.922Z,1024.83
2019-03-23T04:11:28.801Z,1024.85
2019-03-23T04:12:28.797Z,1024.89
2019-03-23T04:13:28.763Z,1024.94
2019-03-23T04:14:28.673Z,1024.94
2019-03-23T04:15:28.680Z,1024.88
2019-03-23T04:16:28.553Z,1024.90
2019-03-23T04:17:28.556Z,1024.90
2019-03-23T04:18:28.552Z,1024.94
2019-03-23T04:19:28.434Z,1024.96
2019-03-23T04:20:28.436Z,1024.90
2019-03-23T04:21:28.316Z,1024.95
2019-03-23T04:22:28.311Z,1024.96
2019-03-23T04:23:28.348Z,1024.95
2019-03-23T04:24:28.189Z,1024.95
2019-03-23T04:25:28.192Z,1024.92
2019-03-23T04:26:28.073Z,1024.87
2019-03-23T04:27:28.077Z,1024.99
2019-03-23T04:28:28.072Z,1024.99
2019-03-23T04:29:27.956Z,1024.99
2019-03-23T04:30:27.952Z,1024.98
2019-03-23T04:31:27.844Z,1025.02
2019-03-23T04:32:27.840Z,1025.08
2019-03-23T04:33:27.833Z,1025.11
2019-03-23T04:34:27.710Z,1025.16
2019-03-23T04:35:27.707Z,1025.17
2019-03-23T04:36:27.589Z,1025.15
2019-03-23T04:37:27.589Z,1025.15
2019-03-23T04:38:27.591Z,1025.12
2019-03-23T04:39:27.477Z,1025.08
2019-03-23T04:40:27.468Z,1025.08
2019-03-23T04:41:27.470Z,1025.11
2019-03-23T04:42:27.344Z,1025.13
2019-03-23T04:43:27.348Z,1025.13
2019-03-23T04:44:27.226Z,1025.17
2019-03-23T04:45:27.229Z,1025.18
2019-03-23T04:46:27.227Z,1025.15
2019-03-23T04:47:27.107Z,1025.20
2019-03-23T04:48:27.108Z,1025.20
2019-03-23T04:49:26.983Z,1025.22
2019-03-23T04:50:26.987Z,1025.25
2019-03-23T04:51:26.985Z,1025.22
2019-03-23T04:52:26.864Z,1025.20
2019-03-23T04:53:26.863Z,1025.21
2019-03-23T04:54:26.745Z,1025.19
2019-03-23T04:55:26.749Z,1025.18
2019-03-23T04:56:26.745Z,1025.16
2019-03-23T04:57:26.623Z,1025.16
2019-03-23T04:58:26.631Z,1025.21
2019-03-23T04:59:26.506Z,1025.17
2019-03-23T05:00:26.509Z,1025.21
2019-03-23T05:01:26.501Z,1025.23
2019-03-23T05:02:26.384Z,1025.17
2019-03-23T05:03:26.386Z,1025.17
2019-03-23T05:04:26.387Z,1025.17
2019-03-23T05:05:26.308Z,1025.16
2019-03-23T05:06:26.263Z,1025.21
2019-03-23T05:07:26.143Z,1025.19
2019-03-23T05:08:33.289Z,1025.23
2019-03-23T05:09:26.158Z,1025.20
2019-03-23T05:10:26.023Z,1025.22
2019-03-23T05:11:26.022Z,1025.15
2019-03-23T05:12:25.902Z,1025.21
2019-03-23T05:13:25.900Z,1025.22
2019-03-23T05:14:25.904Z,1025.22
2019-03-23T05:15:25.780Z,1025.23
2019-03-23T05:16:25.780Z,1025.23
2019-03-23T05:17:25.659Z,1025.25
2019-03-23T05:18:25.658Z,1025.29
2019-03-23T05:19:25.678Z,1025.31
2019-03-23T05:20:25.544Z,1025.39
2019-03-23T05:21:25.544Z,1025.40
2019-03-23T05:22:25.419Z,1025.43
2019-03-23T05:23:25.418Z,1025.44
2019-03-23T05:24:25.421Z,1025.43
2019-03-23T05:25:25.306Z,1025.42
2019-03-23T05:26:25.303Z,1025.39
2019-03-23T05:27:25.299Z,1025.42
2019-03-23T05:28:25.193Z,1025.39
2019-03-23T05:29:25.178Z,1025.47
2019-03-23T05:30:25.063Z,1025.43
2019-03-23T05:31:25.059Z,1025.42
2019-03-23T05:32:25.062Z,1025.42
2019-03-23T05:33:24.936Z,1025.46
2019-03-23T05:34:24.945Z,1025.47
2019-03-23T05:35:24.819Z,1025.47
2019-03-23T05:36:24.814Z,1025.50
2019-03-23T05:37:24.820Z,1025.49
2019-03-23T05:38:24.697Z,1025.47
2019-03-23T05:39:24.697Z,1025.52
2019-03-23T05:40:24.576Z,1025.56
2019-03-23T05:41:24.575Z,1025.58
2019-03-23T05:42:24.576Z,1025.60
2019-03-23T05:43:24.452Z,1025.61
2019-03-23T05:44:24.454Z,1025.60
2019-03-23T05:45:24.334Z,1025.67
2019-03-23T05:46:24.333Z,1025.65
2019-03-23T05:47:24.335Z,1025.65
2019-03-23T05:48:24.219Z,1025.65
2019-03-23T05:49:24.214Z,1025.71
2019-03-23T05:50:24.220Z,1025.68
2019-03-23T05:51:24.096Z,1025.68
2019-03-23T05:52:24.096Z,1025.71
2019-03-23T05:53:23.973Z,1025.77
2019-03-23T05:54:23.974Z,1025.78
2019-03-23T05:55:23.974Z,1025.79
2019-03-23T05:56:23.861Z,1025.80
2019-03-23T05:57:23.854Z,1025.77
2019-03-23T05:58:23.733Z,1025.77
2019-03-23T05:59:23.731Z,1025.75
2019-03-23T06:00:23.733Z,1025.81
2019-03-23T06:01:23.617Z,1025.78
2019-03-23T06:02:23.614Z,1025.85
2019-03-23T06:03:23.491Z,1025.80
2019-03-23T06:04:23.493Z,1025.82
2019-03-23T06:05:24.719Z,1025.79
2019-03-23T06:06:23.373Z,1025.87
2019-03-23T06:07:23.371Z,1025.86
2019-03-23T06:08:23.363Z,1025.86
2019-03-23T06:09:23.248Z,1025.89
2019-03-23T06:10:23.257Z,1025.89
2019-03-23T06:11:23.128Z,1025.88
2019-03-23T06:12:23.130Z,1025.86
2019-03-23T06:13:23.127Z,1025.91
2019-03-23T06:14:23.006Z,1025.92
2019-03-23T06:15:23.006Z,1025.89
2019-03-23T06:16:22.887Z,1025.87
2019-03-23T06:17:22.888Z,1025.91
2019-03-23T06:18:22.888Z,1025.90
2019-03-23T06:19:22.766Z,1025.89
2019-03-23T06:20:22.772Z,1025.89
2019-03-23T06:21:22.645Z,1025.92
2019-03-23T06:22:22.646Z,1025.90
2019-03-23T06:23:22.648Z,1025.92
2019-03-23T06:24:24.806Z,1025.92
2019-03-23T06:25:22.526Z,1025.94
2019-03-23T06:26:22.406Z,1025.94
2019-03-23T06:27:22.407Z,1025.96
2019-03-23T06:28:22.406Z,1025.95
2019-03-23T06:29:22.288Z,1025.97
2019-03-23T06:30:22.287Z,1026.02
2019-03-23T06:31:22.282Z,1026.02
2019-03-23T06:32:22.163Z,1025.99
2019-03-23T06:33:22.183Z,1025.98
2019-03-23T06:34:22.047Z,1025.97
2019-03-23T06:35:22.045Z,1025.95
2019-03-23T06:36:22.048Z,1025.94
2019-03-23T06:37:21.925Z,1025.94
2019-03-23T06:38:21.938Z,1025.92
2019-03-23T06:39:21.815Z,1025.91
2019-03-23T06:40:21.808Z,1025.89
2019-03-23T06:41:21.800Z,1025.93
2019-03-23T06:42:21.697Z,1025.94
2019-03-23T06:43:21.683Z,1025.95
2019-03-23T06:44:21.561Z,1025.95
2019-03-23T06:45:21.560Z,1025.95
2019-03-23T06:46:21.562Z,1025.95
2019-03-23T06:47:21.440Z,1025.93
2019-03-23T06:48:21.442Z,1025.99
2019-03-23T06:49:21.403Z,1025.96
2019-03-23T06:50:21.323Z,1025.96
2019-03-23T06:51:21.320Z,1026.00
2019-03-23T06:52:21.200Z,1025.99
2019-03-23T06:53:21.203Z,1026.04
2019-03-23T06:54:21.197Z,1026.08
2019-03-23T06:55:21.079Z,1026.09
2019-03-23T06:56:21.078Z,1026.09
2019-03-23T06:57:20.962Z,1026.07
2019-03-23T06:58:20.962Z,1026.02
2019-03-23T06:59:20.959Z,1025.99
2019-03-23T07:00:20.842Z,1026.03
2019-03-23T07:01:20.837Z,1026.00
2019-03-23T07:02:20.718Z,1025.98
2019-03-23T07:03:20.721Z,1025.95
2019-03-23T07:04:20.720Z,1025.95
2019-03-23T07:05:20.597Z,1025.97
2019-03-23T07:06:20.601Z,1025.98
2019-03-23T07:07:20.559Z,1025.99
2019-03-23T07:08:31.306Z,1025.97
2019-03-23T07:09:20.474Z,1025.97
2019-03-23T07:10:20.357Z,1025.96
2019-03-23T07:11:20.356Z,1025.98
2019-03-23T07:12:20.354Z,1025.97
2019-03-23T07:13:20.236Z,1025.98
2019-03-23T07:14:20.234Z,1025.99
2019-03-23T07:15:20.659Z,1026.03
2019-03-23T07:16:20.119Z,1025.98
2019-03-23T07:17:20.114Z,1025.98
2019-03-23T07:18:19.993Z,1025.99
2019-03-23T07:19:19.997Z,1026.00
2019-03-23T07:20:19.881Z,1026.01
2019-03-23T07:21:19.876Z,1026.03
2019-03-23T07:22:19.874Z,1026.04
2019-03-23T07:23:19.753Z,1026.08
2019-03-23T07:24:19.752Z,1026.02
2019-03-23T07:25:19.772Z,1026.04
2019-03-23T07:26:19.634Z,1026.03
2019-03-23T07:27:19.632Z,1026.03
2019-03-23T07:28:19.514Z,1026.03
2019-03-23T07:29:19.516Z,1026.06
2019-03-23T07:30:19.539Z,1026.07
2019-03-23T07:31:19.393Z,1026.10
2019-03-23T07:32:19.390Z,1026.11
2019-03-23T07:33:19.272Z,1026.15
2019-03-23T07:34:19.273Z,1026.15
2019-03-23T07:35:19.270Z,1026.14
2019-03-23T07:36:19.153Z,1026.15
2019-03-23T07:37:19.151Z,1026.18
2019-03-23T07:38:19.033Z,1026.17
2019-03-23T07:39:26.912Z,1026.26
2019-03-23T07:40:19.033Z,1026.22
2019-03-23T07:41:18.910Z,1026.27
2019-03-23T07:42:18.909Z,1026.29
2019-03-23T07:43:18.910Z,1026.30
2019-03-23T07:44:18.789Z,1026.32
2019-03-23T07:45:18.787Z,1026.30
2019-03-23T07:46:18.668Z,1026.31
2019-03-23T07:47:18.668Z,1026.33
2019-03-23T07:48:18.715Z,1026.31
2019-03-23T07:49:18.548Z,1026.29
2019-03-23T07:50:18.550Z,1026.30
2019-03-23T07:51:18.425Z,1026.24
2019-03-23T07:52:18.425Z,1026.21
2019-03-23T07:53:18.432Z,1026.27
2019-03-23T07:54:18.307Z,1026.28
2019-03-23T07:55:18.310Z,1026.30
2019-03-23T07:56:18.267Z,1026.28
2019-03-23T07:57:18.190Z,1026.31
2019-03-23T07:58:18.187Z,1026.32
2019-03-23T07:59:18.066Z,1026.26
2019-03-23T08:00:18.140Z,1026.27
2019-03-23T08:01:18.068Z,1026.28
2019-03-23T08:02:17.944Z,1026.28
2019-03-23T08:03:17.947Z,1026.27
2019-03-23T08:04:17.836Z,1026.33
2019-03-23T08:05:17.826Z,1026.32
2019-03-23T08:06:17.837Z,1026.32
2019-03-23T08:07:17.704Z,1026.32
2019-03-23T08:08:17.701Z,1026.33
2019-03-23T08:09:20.640Z,1026.27
2019-03-23T08:10:17.584Z,1026.29
2019-03-23T08:11:17.587Z,1026.33
2019-03-23T08:12:17.463Z,1026.29
2019-03-23T08:13:17.503Z,1026.28
2019-03-23T08:14:17.487Z,1026.24
2019-03-23T08:15:17.340Z,1026.27
2019-03-23T08:16:17.341Z,1026.29
2019-03-23T08:17:17.224Z,1026.30
2019-03-23T08:18:17.221Z,1026.22
2019-03-23T08:19:17.222Z,1026.22
2019-03-23T08:20:17.098Z,1026.21
2019-03-23T08:21:17.104Z,1026.18
2019-03-23T08:22:17.063Z,1026.21
2019-03-23T08:23:16.981Z,1026.19
2019-03-23T08:24:16.982Z,1026.25
2019-03-23T08:25:16.858Z,1026.28
2019-03-23T08:26:16.861Z,1026.28
2019-03-23T08:27:16.861Z,1026.30
2019-03-23T08:28:16.739Z,1026.33
2019-03-23T08:29:16.737Z,1026.34
2019-03-23T08:30:16.619Z,1026.37
2019-03-23T08:31:16.623Z,1026.35
2019-03-23T08:32:16.622Z,1026.38
2019-03-23T08:33:18.173Z,1026.43
2019-03-23T08:34:16.499Z,1026.40
2019-03-23T08:35:16.458Z,1026.40
2019-03-23T08:36:16.379Z,1026.42
2019-03-23T08:37:16.381Z,1026.41
2019-03-23T08:38:16.262Z,1026.40
2019-03-23T08:39:16.256Z,1026.44
2019-03-23T08:40:16.255Z,1026.46
2019-03-23T08:41:16.139Z,1026.45
2019-03-23T08:42:16.144Z,1026.48
2019-03-23T08:43:16.014Z,1026.48
2019-03-23T08:44:16.017Z,1026.48
2019-03-23T08:45:16.021Z,1026.42
2019-03-23T08:46:15.896Z,1026.49
2019-03-23T08:47:15.896Z,1026.42
2019-03-23T08:48:15.856Z,1026.41
2019-03-23T08:49:15.774Z,1026.46
2019-03-23T08:50:15.777Z,1026.45
2019-03-23T08:51:15.658Z,1026.43
2019-03-23T08:52:15.652Z,1026.43
2019-03-23T08:53:15.656Z,1026.42
2019-03-23T08:54:15.531Z,1026.39
2019-03-23T08:55:15.533Z,1026.42
2019-03-23T08:56:15.417Z,1026.40
2019-03-23T08:57:15.415Z,1026.43
2019-03-23T08:58:15.415Z,1026.40
2019-03-23T08:59:15.294Z,1026.43
2019-03-23T09:00:15.292Z,1026.41
2019-03-23T09:01:15.296Z,1026.41
2019-03-23T09:02:15.175Z,1026.46
2019-03-23T09:03:15.174Z,1026.44
2019-03-23T09:04:15.052Z,1026.48
2019-03-23T09:05:15.050Z,1026.47
2019-03-23T09:06:15.053Z,1026.49
2019-03-23T09:07:14.932Z,1026.47
2019-03-23T09:08:14.930Z,1026.48
2019-03-23T09:09:14.812Z,1026.51
2019-03-23T09:10:14.810Z,1026.49
2019-03-23T09:11:20.416Z,1026.52
2019-03-23T09:12:14.692Z,1026.45
2019-03-23T09:13:14.689Z,1026.57
2019-03-23T09:14:14.689Z,1026.60
2019-03-23T09:15:14.574Z,1026.59
2019-03-23T09:16:14.569Z,1026.61
2019-03-23T09:17:14.451Z,1026.54
2019-03-23T09:18:14.447Z,1026.55
2019-03-23T09:19:14.486Z,1026.57
2019-03-23T09:20:14.326Z,1026.61
2019-03-23T09:21:14.327Z,1026.60
2019-03-23T09:22:14.330Z,1026.59
2019-03-23T09:23:14.207Z,1026.61
2019-03-23T09:24:14.211Z,1026.59
2019-03-23T09:25:14.087Z,1026.65
2019-03-23T09:26:14.087Z,1026.59
2019-03-23T09:27:14.087Z,1026.59
2019-03-23T09:28:13.970Z,1026.59
2019-03-23T09:29:13.966Z,1026.57
2019-03-23T09:30:13.844Z,1026.59
2019-03-23T09:31:13.845Z,1026.59
2019-03-23T09:32:13.847Z,1026.56
2019-03-23T09:33:13.738Z,1026.63
2019-03-23T09:34:13.732Z,1026.62
2019-03-23T09:35:13.726Z,1026.65
2019-03-23T09:36:13.615Z,1026.62
2019-03-23T09:37:13.603Z,1026.64
2019-03-23T09:38:13.483Z,1026.63
2019-03-23T09:39:13.485Z,1026.65
2019-03-23T09:40:13.487Z,1026.64
2019-03-23T09:41:13.362Z,1026.65
2019-03-23T09:42:13.370Z,1026.65
2019-03-23T09:43:13.366Z,1026.65
2019-03-23T09:44:13.247Z,1026.67
2019-03-23T09:45:14.335Z,1026.67
2019-03-23T09:46:13.121Z,1026.72
2019-03-23T09:47:13.123Z,1026.75
2019-03-23T09:48:13.123Z,1026.74
2019-03-23T09:49:13.014Z,1026.73
2019-03-23T09:50:13.000Z,1026.73
2019-03-23T09:51:12.994Z,1026.76
2019-03-23T09:52:12.879Z,1026.77
2019-03-23T09:53:12.880Z,1026.75
2019-03-23T09:54:12.758Z,1026.76
2019-03-23T09:55:12.761Z,1026.80
2019-03-23T09:56:12.766Z,1026.77
2019-03-23T09:57:12.637Z,1026.76
2019-03-23T09:58:12.641Z,1026.76
2019-03-23T09:59:12.600Z,1026.78
2019-03-23T10:00:12.521Z,1026.79
2019-03-23T10:01:12.517Z,1026.80
2019-03-23T10:02:12.399Z,1026.80
2019-03-23T10:03:12.403Z,1026.83
2019-03-23T10:04:12.399Z,1026.75
2019-03-23T10:05:12.282Z,1026.74
2019-03-23T10:06:12.280Z,1026.78
2019-03-23T10:07:12.161Z,1026.76
2019-03-23T10:08:12.170Z,1026.76
2019-03-23T10:09:12.162Z,1026.77
2019-03-23T10:10:21.301Z,1026.80
2019-03-23T10:11:12.034Z,1026.80
2019-03-23T10:12:12.035Z,1026.79
2019-03-23T10:13:11.916Z,1026.80
2019-03-23T10:14:11.914Z,1026.82
2019-03-23T10:15:11.798Z,1026.87
2019-03-23T10:16:11.800Z,1026.86
2019-03-23T10:17:11.793Z,1026.86
2019-03-23T10:18:11.673Z,1026.85
2019-03-23T10:19:11.677Z,1026.82
2019-03-23T10:20:11.676Z,1026.85
2019-03-23T10:21:11.552Z,1026.84
2019-03-23T10:22:11.558Z,1026.84
2019-03-23T10:23:11.436Z,1026.83
2019-03-23T10:24:11.456Z,1026.92
2019-03-23T10:25:11.431Z,1026.86
2019-03-23T10:26:11.313Z,1026.89
2019-03-23T10:27:11.316Z,1026.90
2019-03-23T10:28:11.315Z,1026.89
2019-03-23T10:29:11.190Z,1026.89
2019-03-23T10:30:11.193Z,1026.88
2019-03-23T10:31:11.074Z,1026.85
2019-03-23T10:32:11.073Z,1026.85
2019-03-23T10:33:11.073Z,1026.85
2019-03-23T10:34:10.953Z,1026.83
2019-03-23T10:35:10.951Z,1026.83
2019-03-23T10:36:12.253Z,1026.86
2019-03-23T10:37:10.834Z,1026.87
2019-03-23T10:38:10.838Z,1026.88
2019-03-23T10:39:10.715Z,1026.86
2019-03-23T10:40:10.717Z,1026.86
2019-03-23T10:41:10.708Z,1026.87
2019-03-23T10:42:10.587Z,1026.89
2019-03-23T10:43:10.610Z,1026.85
2019-03-23T10:44:10.591Z,1026.84
2019-03-23T10:45:10.470Z,1026.85
2019-03-23T10:46:10.469Z,1026.85
2019-03-23T10:47:10.348Z,1026.88
2019-03-23T10:48:12.170Z,1026.86
2019-03-23T10:49:10.348Z,1026.86
2019-03-23T10:50:10.228Z,1026.89
2019-03-23T10:51:10.232Z,1026.86
2019-03-23T10:52:10.235Z,1026.84
2019-03-23T10:53:10.107Z,1026.84
2019-03-23T10:54:10.108Z,1026.85
2019-03-23T10:55:10.068Z,1026.85
2019-03-23T10:56:09.987Z,1026.82
2019-03-23T10:57:09.990Z,1026.82
2019-03-23T10:58:09.868Z,1026.84
2019-03-23T10:59:09.871Z,1026.86
2019-03-23T11:00:09.864Z,1026.86
2019-03-23T11:01:09.745Z,1026.84
2019-03-23T11:02:09.751Z,1026.82
2019-03-23T11:03:09.743Z,1026.79
2019-03-23T11:04:09.626Z,1026.81
2019-03-23T11:05:09.631Z,1026.83
2019-03-23T11:06:09.502Z,1026.82
2019-03-23T11:07:09.503Z,1026.85
2019-03-23T11:08:09.505Z,1026.84
2019-03-23T11:09:09.385Z,1026.81
2019-03-23T11:10:09.384Z,1026.86
2019-03-23T11:11:09.383Z,1026.86
2019-03-23T11:12:09.264Z,1026.84
2019-03-23T11:13:09.260Z,1026.85
2019-03-23T11:14:09.265Z,1026.83
2019-03-23T11:15:09.142Z,1026.87
2019-03-23T11:16:09.142Z,1026.86
2019-03-23T11:17:09.027Z,1026.83
2019-03-23T11:18:09.022Z,1026.80
2019-03-23T11:19:13.335Z,1026.82
2019-03-23T11:20:08.899Z,1026.88
2019-03-23T11:21:08.902Z,1026.85
2019-03-23T11:22:08.903Z,1026.90
2019-03-23T11:23:08.779Z,1026.89
2019-03-23T11:24:08.785Z,1026.89
2019-03-23T11:25:08.781Z,1026.84
2019-03-23T11:26:08.659Z,1026.83
2019-03-23T11:27:08.662Z,1026.86
2019-03-23T11:28:08.538Z,1026.94
2019-03-23T11:29:08.633Z,1026.88
2019-03-23T11:30:08.538Z,1026.93
2019-03-23T11:31:08.419Z,1026.92
2019-03-23T11:32:08.419Z,1026.90
2019-03-23T11:33:08.421Z,1026.91
2019-03-23T11:34:17.515Z,1026.92
2019-03-23T11:35:08.352Z,1026.89
2019-03-23T11:36:08.298Z,1026.95
2019-03-23T11:37:08.283Z,1026.94
2019-03-23T11:38:08.175Z,1026.92
2019-03-23T11:39:08.137Z,1026.90
2019-03-23T11:40:08.055Z,1026.93
2019-03-23T11:41:08.056Z,1026.97
2019-03-23T11:42:07.934Z,1026.95
2019-03-23T11:43:07.935Z,1026.96
2019-03-23T11:44:07.936Z,1026.94
2019-03-23T11:45:07.816Z,1026.96
2019-03-23T11:46:07.817Z,1026.98
2019-03-23T11:47:07.813Z,1026.97
2019-03-23T11:48:07.694Z,1026.96
2019-03-23T11:49:07.692Z,1027.00
2019-03-23T11:50:07.698Z,1027.04
2019-03-23T11:51:07.582Z,1027.02
2019-03-23T11:52:07.572Z,1027.00
2019-03-23T11:53:07.454Z,1027.00
2019-03-23T11:54:07.451Z,1026.99
2019-03-23T11:55:07.461Z,1027.00
2019-03-23T11:56:07.333Z,1027.00
2019-03-23T11:57:07.333Z,1027.03
2019-03-23T11:58:07.331Z,1026.99
2019-03-23T11:59:07.212Z,1026.98
2019-03-23T12:00:07.216Z,1026.99
2019-03-23T12:01:07.212Z,1026.99
2019-03-23T12:02:07.095Z,1027.02
2019-03-23T12:03:07.090Z,1027.03
2019-03-23T12:04:07.054Z,1027.01
2019-03-23T12:05:06.969Z,1027.03